Huvudsida
METAR-TAF:

METAR-TAF

Flygplatser :

Aviano flygbas

Aviano, Italien

latitud: 46-02N, longitud: 012-36E, höjd: 128 m

Aktuellt väderrapport

Denna rapport gjordes för 15 timmar och 16 minuter sedan, klockan 19:55 UTC
Vind 2 kt från nord/nordost
Temperatur 27°C
Fuktighet 74%
Tryck 1011 hPa
Sikt 10 km eller mer
Inga moln under 1 500 m eller inga cumulonimbus

METAR: LIPA 151955Z 02002KT CAVOK 27/22 Q1011 RMK SCT SCT180 VIS MIN 9999 WIND THR05 /////KT WIND THR23 /////KT A2988 BLU

Tid: 13:11 (11:11 UTC)

Väderprognos

Denna rapport gjordes för 18 timmar och 11 minuter sedan, klockan 17:00 UTC
Prognos gäller från 15 kl. 18 UTC till 16 kl. 03 UTC
Vind 5 kt från syd
Sikt 10 km eller mer
Inga moln under 1 500 m eller inga cumulonimbus

TAF: LIPA 151700Z 1518/1603 18005KT CAVOK

Aktuella väderrapporter och prognoser från 4000 flygplatser (METAR- och TAF-rapporter).

De tillgängliga stationerna syns som gula och röda prickar på kartan.

För musen över prickarna för att se namnen på stationerna.

Klicka sedan för att få väderrapporter och prognoser.

För att ändra kartan: Klicka på de gröna knapparna med ett svart kors på för att zooma in; den gröna knappen med ett streck på för att zooma ut; eller på de gröna pilarna för angränsande kartor.


METAR-TAF: